EZS54H LFSB-LFKJ
Flight info
| Callsign | EZS54H |
|---|---|
| Flight time | 1h 2m |
| Altitude | 37000 |
| Route | ELBEG Y715 AMRUP N491 TRA DCT RIPUS DCT GERSA DCT SOSON DCT ODINA DCT EVANO DCT KEMMI DCT IXITO DCT UNITA DCT ERTEV DCT TORTU |
| Aircraft | A320/M-SDE2E3FGHIJ1RWXYZ/LB1 |
Departure
| Time | 2026-04-08 14:18 |
|---|---|
| Airport | EuroAirport Basel–Mulhouse–Freiburg (LFSB) |
Arrival
| Time | 2026-04-08 15:20 |
|---|---|
| Airport | Ajaccio Napoléon Bonaparte airport (LFKJ) |
| Time | Latitude | Longitude | Altitude | Speed | Heading |
|---|---|---|---|---|---|
| 2026-04-08 13:56 | 47.59998 | 7.52760 | 894 ft | 0 kts | 220° |
| 2026-04-08 14:03 | 47.60009 | 7.52774 | 894 ft | 3 kts | 226° |
| 2026-04-08 14:04 | 47.60021 | 7.52796 | 894 ft | 3 kts | 243° |
| 2026-04-08 14:04 | 47.60027 | 7.52823 | 894 ft | 3 kts | 274° |
| 2026-04-08 14:04 | 47.60024 | 7.52844 | 894 ft | 1 kts | 307° |
| 2026-04-08 14:04 | 47.60021 | 7.52850 | 894 ft | 0 kts | 307° |
| 2026-04-08 14:07 | 47.60022 | 7.52848 | 894 ft | 2 kts | 307° |
| 2026-04-08 14:07 | 47.60056 | 7.52782 | 894 ft | 11 kts | 307° |
| 2026-04-08 14:07 | 47.60083 | 7.52679 | 894 ft | 11 kts | 269° |
| 2026-04-08 14:08 | 47.60081 | 7.52580 | 893 ft | 7 kts | 297° |
| 2026-04-08 14:08 | 47.60123 | 7.52532 | 893 ft | 9 kts | 334° |
| 2026-04-08 14:08 | 47.60172 | 7.52488 | 892 ft | 9 kts | 313° |
| 2026-04-08 14:08 | 47.60204 | 7.52376 | 887 ft | 13 kts | 309° |
| 2026-04-08 14:09 | 47.60285 | 7.52319 | 886 ft | 14 kts | 335° |
| 2026-04-08 14:09 | 47.60375 | 7.52252 | 886 ft | 15 kts | 333° |
| 2026-04-08 14:09 | 47.60477 | 7.52178 | 886 ft | 17 kts | 334° |
| 2026-04-08 14:09 | 47.60591 | 7.52101 | 886 ft | 19 kts | 334° |
| 2026-04-08 14:10 | 47.60713 | 7.52016 | 885 ft | 20 kts | 335° |
| 2026-04-08 14:10 | 47.60845 | 7.51925 | 885 ft | 21 kts | 335° |
| 2026-04-08 14:10 | 47.60981 | 7.51830 | 885 ft | 22 kts | 335° |
| 2026-04-08 14:10 | 47.61080 | 7.51694 | 884 ft | 17 kts | 277° |
| 2026-04-08 14:11 | 47.61067 | 7.51638 | 882 ft | 0 kts | 242° |
| 2026-04-08 14:14 | 47.61059 | 7.51617 | 881 ft | 5 kts | 242° |
| 2026-04-08 14:15 | 47.61035 | 7.51552 | 878 ft | 9 kts | 242° |
| 2026-04-08 14:15 | 47.61010 | 7.51484 | 878 ft | 0 kts | 236° |
| 2026-04-08 14:15 | 47.61006 | 7.51485 | 878 ft | 2 kts | 192° |
| 2026-04-08 14:15 | 47.60991 | 7.51524 | 879 ft | 3 kts | 129° |
| 2026-04-08 14:16 | 47.60982 | 7.51534 | 879 ft | 0 kts | 149° |
| 2026-04-08 14:17 | 47.60977 | 7.51538 | 879 ft | 6 kts | 149° |
| 2026-04-08 14:17 | 47.60696 | 7.51735 | 882 ft | 83 kts | 155° |
| 2026-04-08 14:17 | 47.59979 | 7.52234 | 888 ft | 143 kts | 155° |
| 2026-04-08 14:17 | 47.58929 | 7.52967 | 903 ft | 188 kts | 154° |
| 2026-04-08 14:18 | 47.57705 | 7.53799 | 1406 ft | 196 kts | 153° |
| 2026-04-08 14:18 | 47.56454 | 7.54608 | 2052 ft | 201 kts | 162° |
| 2026-04-08 14:18 | 47.55014 | 7.54550 | 2383 ft | 223 kts | 205° |
| 2026-04-08 14:18 | 47.53880 | 7.52932 | 2924 ft | 237 kts | 247° |
| 2026-04-08 14:19 | 47.53688 | 7.50567 | 3567 ft | 240 kts | 287° |
| 2026-04-08 14:19 | 47.54554 | 7.48517 | 4347 ft | 239 kts | 326° |
| 2026-04-08 14:19 | 47.56064 | 7.47568 | 5106 ft | 238 kts | 351° |
| 2026-04-08 14:19 | 47.57703 | 7.47214 | 5929 ft | 239 kts | 356° |
| 2026-04-08 14:20 | 47.59370 | 7.47025 | 6679 ft | 244 kts | 357° |
| 2026-04-08 14:20 | 47.61064 | 7.46851 | 6915 ft | 243 kts | 357° |
| 2026-04-08 14:20 | 47.62745 | 7.46646 | 6990 ft | 242 kts | 356° |
| 2026-04-08 14:20 | 47.64397 | 7.46830 | 7006 ft | 239 kts | 21° |
| 2026-04-08 14:21 | 47.65770 | 7.48181 | 7010 ft | 246 kts | 49° |
| 2026-04-08 14:21 | 47.66600 | 7.50544 | 7045 ft | 271 kts | 79° |
| 2026-04-08 14:21 | 47.66475 | 7.53354 | 7745 ft | 280 kts | 108° |
| 2026-04-08 14:21 | 47.65384 | 7.55757 | 8501 ft | 288 kts | 140° |
| 2026-04-08 14:22 | 47.63655 | 7.57309 | 9319 ft | 294 kts | 152° |
| 2026-04-08 14:22 | 47.61813 | 7.58690 | 10164 ft | 298 kts | 153° |
| 2026-04-08 14:22 | 47.59894 | 7.60067 | 10574 ft | 318 kts | 154° |
| 2026-04-08 14:22 | 47.57838 | 7.61528 | 10912 ft | 336 kts | 153° |
| 2026-04-08 14:23 | 47.55705 | 7.63050 | 11555 ft | 343 kts | 153° |
| 2026-04-08 14:23 | 47.53541 | 7.64603 | 12252 ft | 349 kts | 153° |
| 2026-04-08 14:23 | 47.51343 | 7.66198 | 12931 ft | 354 kts | 153° |
| 2026-04-08 14:23 | 47.49123 | 7.67820 | 13658 ft | 358 kts | 153° |
| 2026-04-08 14:24 | 47.46878 | 7.69467 | 14356 ft | 362 kts | 153° |
| 2026-04-08 14:24 | 47.44616 | 7.71128 | 15017 ft | 364 kts | 153° |
| 2026-04-08 14:24 | 47.42335 | 7.72795 | 15676 ft | 367 kts | 153° |
| 2026-04-08 14:24 | 47.40034 | 7.74476 | 16316 ft | 371 kts | 153° |
| 2026-04-08 14:25 | 47.37709 | 7.76174 | 16941 ft | 375 kts | 153° |
| 2026-04-08 14:25 | 47.35393 | 7.77866 | 17544 ft | 379 kts | 153° |
| 2026-04-08 14:25 | 47.33018 | 7.79596 | 18179 ft | 382 kts | 153° |
| 2026-04-08 14:25 | 47.30622 | 7.81338 | 18731 ft | 386 kts | 153° |
| 2026-04-08 14:26 | 47.28200 | 7.83093 | 19253 ft | 390 kts | 153° |
| 2026-04-08 14:26 | 47.25755 | 7.84862 | 19795 ft | 393 kts | 153° |
| 2026-04-08 14:26 | 47.23289 | 7.86646 | 20332 ft | 397 kts | 153° |
| 2026-04-08 14:26 | 47.20800 | 7.88449 | 20882 ft | 400 kts | 153° |
| 2026-04-08 14:27 | 47.18292 | 7.90264 | 21412 ft | 404 kts | 154° |
| 2026-04-08 14:27 | 47.15764 | 7.92090 | 21947 ft | 407 kts | 154° |
| 2026-04-08 14:27 | 47.13210 | 7.93931 | 22486 ft | 411 kts | 154° |
| 2026-04-08 14:27 | 47.10632 | 7.95787 | 23023 ft | 414 kts | 154° |
| 2026-04-08 14:28 | 47.08033 | 7.97658 | 23525 ft | 418 kts | 154° |
| 2026-04-08 14:28 | 47.05415 | 7.99543 | 23985 ft | 421 kts | 154° |
| 2026-04-08 14:28 | 47.02772 | 8.01441 | 24416 ft | 424 kts | 154° |
| 2026-04-08 14:28 | 47.00115 | 8.03348 | 24835 ft | 427 kts | 154° |
| 2026-04-08 14:29 | 46.97442 | 8.05264 | 25262 ft | 429 kts | 154° |
| 2026-04-08 14:29 | 46.94753 | 8.07191 | 25665 ft | 432 kts | 154° |
| 2026-04-08 14:29 | 46.92046 | 8.09129 | 26057 ft | 434 kts | 154° |
| 2026-04-08 14:29 | 46.89329 | 8.11072 | 26441 ft | 436 kts | 154° |
| 2026-04-08 14:30 | 46.86594 | 8.13026 | 26813 ft | 438 kts | 154° |
| 2026-04-08 14:30 | 46.83848 | 8.14983 | 27201 ft | 440 kts | 154° |
| 2026-04-08 14:30 | 46.81087 | 8.16948 | 27587 ft | 442 kts | 155° |
| 2026-04-08 14:30 | 46.78313 | 8.18918 | 27930 ft | 446 kts | 155° |
| 2026-04-08 14:31 | 46.75514 | 8.20904 | 28272 ft | 448 kts | 155° |
| 2026-04-08 14:31 | 46.72705 | 8.22899 | 28610 ft | 451 kts | 155° |
| 2026-04-08 14:31 | 46.69876 | 8.24903 | 28970 ft | 452 kts | 155° |
| 2026-04-08 14:31 | 46.67077 | 8.26883 | 29302 ft | 455 kts | 155° |
| 2026-04-08 14:32 | 46.64226 | 8.28900 | 29646 ft | 457 kts | 155° |
| 2026-04-08 14:32 | 46.61361 | 8.30927 | 30002 ft | 458 kts | 155° |
| 2026-04-08 14:32 | 46.58483 | 8.32959 | 30304 ft | 461 kts | 155° |
| 2026-04-08 14:32 | 46.55592 | 8.34997 | 30569 ft | 463 kts | 155° |
| 2026-04-08 14:33 | 46.52697 | 8.37032 | 30800 ft | 464 kts | 155° |
| 2026-04-08 14:33 | 46.49781 | 8.39077 | 31046 ft | 466 kts | 155° |
| 2026-04-08 14:33 | 46.46855 | 8.41128 | 31260 ft | 468 kts | 155° |
| 2026-04-08 14:33 | 46.43917 | 8.43190 | 31469 ft | 470 kts | 155° |
| 2026-04-08 14:34 | 46.40972 | 8.45255 | 31737 ft | 470 kts | 155° |
| 2026-04-08 14:34 | 46.38027 | 8.47317 | 32084 ft | 470 kts | 155° |
| 2026-04-08 14:34 | 46.35087 | 8.49368 | 32383 ft | 470 kts | 155° |
| 2026-04-08 14:34 | 46.32140 | 8.51422 | 32678 ft | 469 kts | 155° |
| 2026-04-08 14:35 | 46.29201 | 8.53467 | 32992 ft | 469 kts | 155° |
| 2026-04-08 14:35 | 46.26265 | 8.55513 | 33283 ft | 469 kts | 155° |
| 2026-04-08 14:35 | 46.23329 | 8.57559 | 33585 ft | 468 kts | 155° |
| 2026-04-08 14:35 | 46.20404 | 8.59597 | 33885 ft | 467 kts | 155° |
| 2026-04-08 14:36 | 46.18461 | 8.60947 | 34088 ft | 467 kts | 155° |
| 2026-04-08 14:36 | 46.15539 | 8.62969 | 34353 ft | 466 kts | 155° |
| 2026-04-08 14:36 | 46.12593 | 8.64917 | 34621 ft | 465 kts | 160° |
| 2026-04-08 14:36 | 46.09519 | 8.66306 | 34889 ft | 462 kts | 169° |
| 2026-04-08 14:37 | 46.06358 | 8.67023 | 35097 ft | 459 kts | 177° |
| 2026-04-08 14:37 | 46.03179 | 8.67404 | 35374 ft | 459 kts | 177° |
| 2026-04-08 14:37 | 46.00000 | 8.67794 | 35618 ft | 458 kts | 177° |
| 2026-04-08 14:37 | 45.96832 | 8.68192 | 35885 ft | 457 kts | 177° |
| 2026-04-08 14:38 | 45.93666 | 8.68597 | 36126 ft | 456 kts | 177° |
| 2026-04-08 14:38 | 45.90510 | 8.69003 | 36368 ft | 455 kts | 177° |
| 2026-04-08 14:38 | 45.87356 | 8.69406 | 36597 ft | 455 kts | 177° |
| 2026-04-08 14:38 | 45.84198 | 8.69806 | 36800 ft | 455 kts | 177° |
| 2026-04-08 14:39 | 45.81042 | 8.70200 | 36966 ft | 455 kts | 177° |
| 2026-04-08 14:39 | 45.77894 | 8.70589 | 37125 ft | 455 kts | 177° |
| 2026-04-08 14:39 | 45.74744 | 8.70980 | 37151 ft | 453 kts | 177° |
| 2026-04-08 14:40 | 45.68473 | 8.71763 | 37138 ft | 451 kts | 177° |
| 2026-04-08 14:40 | 45.62219 | 8.72548 | 37135 ft | 451 kts | 177° |
| 2026-04-08 14:41 | 45.55972 | 8.73328 | 37138 ft | 450 kts | 177° |
| 2026-04-08 14:41 | 45.49730 | 8.74106 | 37139 ft | 450 kts | 177° |
| 2026-04-08 14:42 | 45.43483 | 8.74877 | 37133 ft | 451 kts | 177° |
| 2026-04-08 14:42 | 45.37240 | 8.75648 | 37141 ft | 450 kts | 177° |
| 2026-04-08 14:43 | 45.31034 | 8.76397 | 37144 ft | 450 kts | 178° |
| 2026-04-08 14:43 | 45.24743 | 8.76977 | 37165 ft | 450 kts | 179° |
| 2026-04-08 14:44 | 45.18539 | 8.77494 | 37171 ft | 449 kts | 179° |
| 2026-04-08 14:44 | 45.12296 | 8.78039 | 37178 ft | 449 kts | 178° |
| 2026-04-08 14:45 | 45.06061 | 8.78611 | 37182 ft | 449 kts | 178° |
| 2026-04-08 14:45 | 44.99828 | 8.79190 | 37148 ft | 449 kts | 178° |
| 2026-04-08 14:46 | 44.93598 | 8.79758 | 37148 ft | 448 kts | 178° |
| 2026-04-08 14:46 | 44.87374 | 8.80320 | 37160 ft | 449 kts | 178° |
| 2026-04-08 14:47 | 44.81142 | 8.80882 | 37157 ft | 449 kts | 178° |
| 2026-04-08 14:47 | 44.74904 | 8.81347 | 37163 ft | 448 kts | 181° |
| 2026-04-08 14:48 | 44.68676 | 8.81296 | 37180 ft | 447 kts | 184° |
| 2026-04-08 14:48 | 44.62456 | 8.81051 | 37188 ft | 447 kts | 184° |
| 2026-04-08 14:49 | 44.56232 | 8.80893 | 37196 ft | 447 kts | 182° |
| 2026-04-08 14:49 | 44.50010 | 8.80829 | 37207 ft | 447 kts | 182° |
| 2026-04-08 14:50 | 44.43784 | 8.80767 | 37203 ft | 447 kts | 182° |
| 2026-04-08 14:50 | 44.37562 | 8.80685 | 37210 ft | 447 kts | 182° |
| 2026-04-08 14:51 | 44.31342 | 8.80602 | 37206 ft | 447 kts | 182° |
| 2026-04-08 14:51 | 44.25165 | 8.80519 | 37205 ft | 447 kts | 182° |
| 2026-04-08 14:52 | 44.18950 | 8.80487 | 37211 ft | 447 kts | 178° |
| 2026-04-08 14:52 | 44.15870 | 8.81102 | 37207 ft | 449 kts | 167° |
| 2026-04-08 14:52 | 44.12905 | 8.82452 | 37204 ft | 450 kts | 157° |
| 2026-04-08 14:53 | 44.07654 | 8.87144 | 37203 ft | 451 kts | 140° |
| 2026-04-08 14:53 | 44.02851 | 8.92749 | 37195 ft | 451 kts | 140° |
| 2026-04-08 14:54 | 43.97863 | 8.97990 | 37190 ft | 450 kts | 152° |
| 2026-04-08 14:54 | 43.95016 | 8.99758 | 37189 ft | 448 kts | 163° |
| 2026-04-08 14:54 | 43.92001 | 9.00791 | 37194 ft | 445 kts | 174° |
| 2026-04-08 14:55 | 43.85869 | 9.00628 | 37187 ft | 441 kts | 191° |
| 2026-04-08 14:55 | 43.79810 | 8.99290 | 37189 ft | 441 kts | 191° |
| 2026-04-08 14:56 | 43.73741 | 8.97971 | 37193 ft | 441 kts | 191° |
| 2026-04-08 14:56 | 43.67668 | 8.96656 | 37192 ft | 442 kts | 191° |
| 2026-04-08 14:57 | 43.61558 | 8.95806 | 36976 ft | 443 kts | 181° |
| 2026-04-08 14:57 | 43.58475 | 8.95812 | 36703 ft | 442 kts | 181° |
| 2026-04-08 14:57 | 43.55440 | 8.95821 | 36447 ft | 443 kts | 181° |
| 2026-04-08 14:57 | 43.52358 | 8.95828 | 36191 ft | 443 kts | 181° |
| 2026-04-08 14:58 | 43.49277 | 8.95834 | 35937 ft | 442 kts | 181° |
| 2026-04-08 14:58 | 43.46206 | 8.95838 | 35685 ft | 440 kts | 181° |
| 2026-04-08 14:58 | 43.43155 | 8.95717 | 35389 ft | 438 kts | 186° |
| 2026-04-08 14:58 | 43.40095 | 8.95333 | 34365 ft | 447 kts | 186° |
| 2026-04-08 14:59 | 43.36965 | 8.94874 | 33170 ft | 457 kts | 192° |
| 2026-04-08 14:59 | 43.33947 | 8.93622 | 32648 ft | 449 kts | 200° |
| 2026-04-08 14:59 | 43.31003 | 8.92260 | 32128 ft | 444 kts | 199° |
| 2026-04-08 14:59 | 43.28080 | 8.90955 | 31576 ft | 440 kts | 198° |
| 2026-04-08 15:00 | 43.25173 | 8.89682 | 31031 ft | 437 kts | 198° |
| 2026-04-08 15:00 | 43.22286 | 8.88425 | 30503 ft | 433 kts | 198° |
| 2026-04-08 15:00 | 43.19422 | 8.87190 | 29902 ft | 428 kts | 197° |
| 2026-04-08 15:00 | 43.16586 | 8.86046 | 28901 ft | 423 kts | 195° |
| 2026-04-08 15:01 | 43.13765 | 8.84985 | 27942 ft | 417 kts | 195° |
| 2026-04-08 15:01 | 43.10977 | 8.83974 | 27024 ft | 412 kts | 194° |
| 2026-04-08 15:01 | 43.08220 | 8.82981 | 26150 ft | 407 kts | 194° |
| 2026-04-08 15:01 | 43.05496 | 8.81994 | 25314 ft | 402 kts | 194° |
| 2026-04-08 15:02 | 43.02807 | 8.81008 | 24509 ft | 398 kts | 194° |
| 2026-04-08 15:02 | 43.00150 | 8.80023 | 23696 ft | 394 kts | 194° |
| 2026-04-08 15:02 | 42.97520 | 8.79041 | 22781 ft | 391 kts | 194° |
| 2026-04-08 15:02 | 42.94897 | 8.78057 | 22286 ft | 389 kts | 195° |
| 2026-04-08 15:03 | 42.92297 | 8.77081 | 21835 ft | 386 kts | 195° |
| 2026-04-08 15:03 | 42.89719 | 8.76120 | 21376 ft | 383 kts | 195° |
| 2026-04-08 15:03 | 42.87157 | 8.75170 | 20928 ft | 380 kts | 195° |
| 2026-04-08 15:03 | 42.84613 | 8.74227 | 20487 ft | 377 kts | 195° |
| 2026-04-08 15:04 | 42.82101 | 8.73294 | 19824 ft | 372 kts | 195° |
| 2026-04-08 15:04 | 42.79620 | 8.72372 | 19035 ft | 368 kts | 195° |
| 2026-04-08 15:04 | 42.77157 | 8.71458 | 18251 ft | 365 kts | 195° |
| 2026-04-08 15:04 | 42.74725 | 8.70556 | 17482 ft | 360 kts | 195° |
| 2026-04-08 15:05 | 42.72350 | 8.69679 | 17035 ft | 346 kts | 195° |
| 2026-04-08 15:05 | 42.70074 | 8.68839 | 16637 ft | 333 kts | 195° |
| 2026-04-08 15:05 | 42.67910 | 8.68041 | 16256 ft | 321 kts | 195° |
| 2026-04-08 15:05 | 42.65792 | 8.67258 | 15885 ft | 310 kts | 195° |
| 2026-04-08 15:06 | 42.63750 | 8.66504 | 15527 ft | 300 kts | 195° |
| 2026-04-08 15:06 | 42.61744 | 8.65765 | 15177 ft | 298 kts | 195° |
| 2026-04-08 15:06 | 42.59745 | 8.65030 | 14823 ft | 297 kts | 195° |
| 2026-04-08 15:06 | 42.57759 | 8.64300 | 14474 ft | 295 kts | 195° |
| 2026-04-08 15:07 | 42.55788 | 8.63574 | 14127 ft | 293 kts | 195° |
| 2026-04-08 15:07 | 42.53819 | 8.62848 | 13748 ft | 294 kts | 195° |
| 2026-04-08 15:07 | 42.51843 | 8.62121 | 13387 ft | 294 kts | 195° |
| 2026-04-08 15:07 | 42.49874 | 8.61399 | 13032 ft | 293 kts | 195° |
| 2026-04-08 15:08 | 42.47904 | 8.60675 | 12674 ft | 293 kts | 195° |
| 2026-04-08 15:08 | 42.45937 | 8.59952 | 12315 ft | 293 kts | 195° |
| 2026-04-08 15:08 | 42.43970 | 8.59231 | 11951 ft | 293 kts | 195° |
| 2026-04-08 15:08 | 42.42002 | 8.58512 | 11585 ft | 293 kts | 195° |
| 2026-04-08 15:09 | 42.40033 | 8.57794 | 11215 ft | 293 kts | 195° |
| 2026-04-08 15:09 | 42.38065 | 8.57076 | 10836 ft | 293 kts | 195° |
| 2026-04-08 15:09 | 42.36097 | 8.56355 | 10458 ft | 294 kts | 196° |
| 2026-04-08 15:09 | 42.34119 | 8.55629 | 10073 ft | 295 kts | 196° |
| 2026-04-08 15:10 | 42.32137 | 8.54901 | 9643 ft | 295 kts | 196° |
| 2026-04-08 15:10 | 42.30158 | 8.54177 | 9244 ft | 294 kts | 196° |
| 2026-04-08 15:10 | 42.28188 | 8.53459 | 8835 ft | 293 kts | 196° |
| 2026-04-08 15:10 | 42.26227 | 8.52745 | 8425 ft | 292 kts | 196° |
| 2026-04-08 15:11 | 42.24270 | 8.52033 | 8042 ft | 290 kts | 196° |
| 2026-04-08 15:11 | 42.22372 | 8.51342 | 7834 ft | 275 kts | 196° |
| 2026-04-08 15:11 | 42.20570 | 8.50686 | 7478 ft | 262 kts | 196° |
| 2026-04-08 15:11 | 42.18870 | 8.50076 | 7153 ft | 251 kts | 193° |
| 2026-04-08 15:12 | 42.17152 | 8.49857 | 6816 ft | 247 kts | 177° |
| 2026-04-08 15:12 | 42.15473 | 8.50286 | 6465 ft | 246 kts | 161° |
| 2026-04-08 15:12 | 42.13948 | 8.51305 | 6118 ft | 245 kts | 145° |
| 2026-04-08 15:12 | 42.12650 | 8.52713 | 5764 ft | 235 kts | 140° |
| 2026-04-08 15:13 | 42.11420 | 8.54099 | 5418 ft | 227 kts | 140° |
| 2026-04-08 15:13 | 42.10222 | 8.55445 | 5072 ft | 221 kts | 141° |
| 2026-04-08 15:13 | 42.09056 | 8.56754 | 4745 ft | 214 kts | 141° |
| 2026-04-08 15:13 | 42.07952 | 8.57993 | 4572 ft | 202 kts | 141° |
| 2026-04-08 15:14 | 42.06883 | 8.59190 | 4266 ft | 198 kts | 141° |
| 2026-04-08 15:14 | 42.05828 | 8.60370 | 3967 ft | 197 kts | 141° |
| 2026-04-08 15:14 | 42.04781 | 8.61546 | 3679 ft | 195 kts | 141° |
| 2026-04-08 15:14 | 42.03740 | 8.62715 | 3428 ft | 195 kts | 141° |
| 2026-04-08 15:15 | 42.02717 | 8.63860 | 3273 ft | 187 kts | 141° |
| 2026-04-08 15:15 | 42.01769 | 8.65002 | 3118 ft | 181 kts | 133° |
| 2026-04-08 15:15 | 42.01060 | 8.66358 | 3028 ft | 176 kts | 118° |
| 2026-04-08 15:15 | 42.00621 | 8.67883 | 2980 ft | 175 kts | 104° |
| 2026-04-08 15:16 | 42.00403 | 8.69483 | 2980 ft | 173 kts | 99° |
| 2026-04-08 15:16 | 42.00206 | 8.71008 | 2970 ft | 160 kts | 100° |
| 2026-04-08 15:16 | 42.00015 | 8.72465 | 2968 ft | 158 kts | 100° |
| 2026-04-08 15:16 | 41.99824 | 8.73917 | 2895 ft | 159 kts | 100° |
| 2026-04-08 15:17 | 41.99633 | 8.75370 | 2618 ft | 156 kts | 101° |
| 2026-04-08 15:17 | 41.99447 | 8.76781 | 2343 ft | 152 kts | 101° |
| 2026-04-08 15:17 | 41.99264 | 8.78169 | 2090 ft | 150 kts | 103° |
| 2026-04-08 15:17 | 41.99084 | 8.79540 | 1859 ft | 148 kts | 103° |
| 2026-04-08 15:18 | 41.98335 | 8.81993 | 1393 ft | 142 kts | 142° |
| 2026-04-08 15:18 | 41.97504 | 8.82637 | 1153 ft | 136 kts | 168° |
| 2026-04-08 15:18 | 41.96588 | 8.82730 | 951 ft | 135 kts | 191° |
| 2026-04-08 15:19 | 41.95712 | 8.82306 | 741 ft | 133 kts | 207° |
| 2026-04-08 15:19 | 41.94869 | 8.81775 | 530 ft | 133 kts | 206° |
| 2026-04-08 15:19 | 41.94025 | 8.81246 | 283 ft | 133 kts | 205° |
| 2026-04-08 15:19 | 41.93193 | 8.80743 | 124 ft | 131 kts | 205° |
| 2026-04-08 15:20 | 41.92402 | 8.80244 | 24 ft | 115 kts | 205° |
| 2026-04-08 15:20 | 41.91875 | 8.79925 | 19 ft | 65 kts | 206° |
| 2026-04-08 15:20 | 41.91504 | 8.79692 | 18 ft | 54 kts | 205° |
| 2026-04-08 15:20 | 41.91275 | 8.79544 | 22 ft | 23 kts | 218° |
| 2026-04-08 15:21 | 41.91305 | 8.79394 | 23 ft | 21 kts | 331° |
| 2026-04-08 15:21 | 41.91428 | 8.79336 | 30 ft | 18 kts | 358° |
| 2026-04-08 15:21 | 41.91540 | 8.79383 | 29 ft | 16 kts | 24° |
| 2026-04-08 15:21 | 41.91637 | 8.79446 | 29 ft | 15 kts | 25° |
| 2026-04-08 15:22 | 41.91727 | 8.79501 | 30 ft | 13 kts | 13° |
| 2026-04-08 15:22 | 41.91783 | 8.79481 | 28 ft | 3 kts | 338° |
| 2026-04-08 15:22 | 41.91797 | 8.79476 | 26 ft | 0 kts | 344° |